Time;durP1;ratioP1;P1;durP2;ratioP2;P2;SDS_P1;SDS_P2;PMS_P1;PMS_P2;Temp;Humidity;BMP_temperature;BMP_pressure;BME280_temperature;BME280_humidity;BME280_pressure;Samples;Min_cycle;Max_cycle;Signal;HPM_P1;HPM_P2
2023/04/22 00:02:54;;;;;;;20.90;12.40;;;;;;;6.48;58.32;100258.95;129260;1261;115200;-65
2023/04/22 00:05:57;;;;;;;;;;;;;;;6.45;58.57;100262.08;129555;1273;114901;-65
2023/04/22 00:09:00;;;;;;;22.50;14.70;;;;;;;6.40;58.71;100258.69;129873;1281;114765;-64
2023/04/22 00:12:03;;;;;;;28.00;16.10;;;;;;;6.35;58.81;100256.73;129834;1262;114824;-65
2023/04/22 00:15:06;;;;;;;28.90;17.00;;;;;;;6.30;58.86;100252.80;129553;1281;114746;-66
2023/04/22 00:18:12;;;;;;;30.00;16.70;;;;;;;6.26;58.99;100252.58;129567;1261;114790;-67
2023/04/22 00:21:14;;;;;;;31.70;17.30;;;;;;;6.22;59.13;100255.02;129387;1278;114726;-65
2023/04/22 00:24:17;;;;;;;28.20;16.30;;;;;;;6.17;59.33;100251.80;129397;1270;114702;-65
2023/04/22 00:27:20;;;;;;;25.20;15.30;;;;;;;6.12;59.53;100252.33;129942;1259;114703;-65
2023/04/22 00:30:23;;;;;;;25.90;16.20;;;;;;;6.06;59.76;100251.61;129466;1262;114803;-65
2023/04/22 00:33:25;;;;;;;28.50;16.60;;;;;;;6.01;59.91;100250.55;129990;1261;114793;-65
2023/04/22 00:36:28;;;;;;;24.10;15.40;;;;;;;5.96;60.02;100251.03;129714;1274;115312;-66
2023/04/22 00:39:30;;;;;;;27.40;15.70;;;;;;;5.90;60.12;100244.46;129423;1259;114711;-66
2023/04/22 00:42:33;;;;;;;30.10;16.00;;;;;;;5.86;60.28;100243.53;129539;1259;114791;-65
2023/04/22 00:45:36;;;;;;;32.60;16.20;;;;;;;5.81;60.47;100244.39;129426;1264;115251;-65
2023/04/22 00:48:38;;;;;;;24.70;15.30;;;;;;;5.76;60.65;100246.84;129603;1262;114815;-66
2023/04/22 00:51:41;;;;;;;28.70;15.80;;;;;;;5.71;60.88;100249.83;129706;1259;114815;-65
2023/04/22 00:54:45;;;;;;;25.90;15.60;;;;;;;5.66;60.89;100251.77;129880;1260;114733;-66
2023/04/22 00:57:52;;;;;;;27.10;16.40;;;;;;;5.60;61.25;100251.40;129358;1261;114848;-62
2023/04/22 01:00:57;;;;;;;27.80;15.90;;;;;;;5.54;61.32;100254.77;129836;1259;128835;-62
2023/04/22 01:04:02;;;;;;;19.80;12.60;;;;;;;5.48;61.29;100262.20;129454;1259;114698;-65
2023/04/22 01:07:06;;;;;;;28.80;16.50;;;;;;;5.42;61.44;100258.65;129312;1264;114819;-64
2023/04/22 01:10:10;;;;;;;33.00;19.30;;;;;;;5.37;61.52;100261.46;129311;1264;114867;-64
2023/04/22 01:13:12;;;;;;;36.10;19.40;;;;;;;5.31;61.69;100266.04;129243;1264;116253;-65
2023/04/22 01:16:14;;;;;;;34.60;19.50;;;;;;;5.27;61.87;100264.75;129349;1259;115067;-64
2023/04/22 01:19:17;;;;;;;36.50;21.10;;;;;;;5.23;62.00;100266.11;129458;1264;114713;-64
2023/04/22 01:22:19;;;;;;;36.70;20.30;;;;;;;5.19;62.40;100268.16;129223;1258;391711;-64
2023/04/22 01:25:22;;;;;;;34.20;21.70;;;;;;;5.14;62.60;100273.97;129472;1262;114819;-65
2023/04/22 01:28:25;;;;;;;33.80;20.50;;;;;;;5.10;62.70;100277.08;129443;1261;115409;-63
2023/04/22 01:31:30;;;;;;;38.50;23.40;;;;;;;5.06;62.78;100276.09;129419;1263;114717;-63
2023/04/22 01:34:32;;;;;;;36.50;22.00;;;;;;;5.02;63.03;100272.86;129396;1281;129163;-64
2023/04/22 01:37:35;;;;;;;36.20;20.80;;;;;;;4.99;63.33;100270.13;129463;1261;114709;-64
2023/04/22 01:40:38;;;;;;;43.40;22.60;;;;;;;4.96;63.47;100276.58;129477;1259;114773;-63
2023/04/22 01:43:41;;;;;;;37.70;22.00;;;;;;;4.92;63.45;100268.70;129460;1261;114749;-65
2023/04/22 01:46:44;;;;;;;36.50;21.90;;;;;;;4.89;63.58;100270.02;129449;1259;114728;-63
2023/04/22 01:49:46;;;;;;;36.50;21.80;;;;;;;4.86;63.64;100272.95;129479;1261;114871;-63
2023/04/22 01:52:49;;;;;;;36.20;21.60;;;;;;;4.82;63.75;100268.44;129541;1258;114733;-63
2023/04/22 01:55:54;;;;;;;;;;;;;;;4.79;64.19;100268.53;129399;1261;114733;-63
2023/04/22 01:58:56;;;;;;;35.60;20.10;;;;;;;4.76;64.28;100269.50;129540;1258;115053;-64
2023/04/22 02:01:58;;;;;;;32.10;20.40;;;;;;;4.72;64.48;100263.74;129460;1259;114793;-63
2023/04/22 02:05:01;;;;;;;36.40;20.80;;;;;;;4.70;64.45;100257.98;129274;1264;114810;-64
2023/04/22 02:08:03;;;;;;;38.20;21.00;;;;;;;4.66;64.73;100254.00;129381;1281;114770;-63
2023/04/22 02:11:06;;;;;;;30.10;19.30;;;;;;;4.62;64.62;100254.98;129392;1261;115338;-64
2023/04/22 02:14:08;;;;;;;31.00;19.60;;;;;;;4.58;64.96;100253.66;129439;1261;114776;-66
2023/04/22 02:17:10;;;;;;;34.60;19.00;;;;;;;4.54;64.72;100250.75;129365;1281;115328;-64
2023/04/22 02:20:13;;;;;;;36.70;19.70;;;;;;;4.51;65.02;100250.49;129467;1261;114822;-64
2023/04/22 02:23:15;;;;;;;31.90;19.60;;;;;;;4.47;65.10;100249.86;129378;1259;114733;-64
2023/04/22 02:26:17;;;;;;;33.50;18.90;;;;;;;4.44;65.27;100254.20;129522;1261;114748;-64
2023/04/22 02:29:19;;;;;;;33.30;20.00;;;;;;;4.39;65.43;100251.30;129490;1274;114818;-65
2023/04/22 02:32:21;;;;;;;30.10;18.90;;;;;;;4.38;65.88;100249.73;129344;1261;114829;-64
2023/04/22 02:35:23;;;;;;;36.20;20.50;;;;;;;4.36;65.88;100247.68;129520;1262;114708;-64
2023/04/22 02:38:25;;;;;;;33.30;18.90;;;;;;;4.33;65.74;100245.61;129465;1281;115220;-64
2023/04/22 02:41:28;;;;;;;30.60;17.80;;;;;;;4.29;65.76;100242.54;129490;1261;114999;-63
2023/04/22 02:44:31;;;;;;;31.00;19.60;;;;;;;4.25;65.84;100244.58;129487;1260;115323;-63
2023/04/22 02:47:33;;;;;;;25.40;17.00;;;;;;;4.22;66.12;100241.48;129514;1261;115077;-63
2023/04/22 02:50:35;;;;;;;29.20;17.50;;;;;;;4.19;66.15;100242.77;129532;1262;115392;-64
2023/04/22 02:53:38;;;;;;;26.40;15.80;;;;;;;4.16;66.42;100236.84;129343;1261;114780;-63
2023/04/22 02:56:40;;;;;;;28.00;16.60;;;;;;;4.14;66.55;100236.90;129536;1259;115448;-63
2023/04/22 02:59:42;;;;;;;33.10;18.30;;;;;;;4.10;66.55;100238.04;129378;1281;115417;-63
2023/04/22 03:02:45;;;;;;;31.80;17.10;;;;;;;4.07;66.58;100235.80;129463;1261;115216;-63
2023/04/22 03:05:47;;;;;;;28.70;16.60;;;;;;;4.04;66.96;100236.43;129512;1259;114742;-64
2023/04/22 03:08:49;;;;;;;33.40;17.60;;;;;;;4.01;66.92;100233.67;129516;1259;114806;-64
2023/04/22 03:11:52;;;;;;;26.90;15.70;;;;;;;3.97;66.96;100232.17;129464;1262;114733;-63
2023/04/22 03:14:54;;;;;;;27.40;16.70;;;;;;;3.95;67.19;100238.40;129418;1281;114732;-63
2023/04/22 03:17:57;;;;;;;26.00;15.50;;;;;;;3.91;67.23;100235.65;129528;1281;114805;-64
2023/04/22 03:20:59;;;;;;;27.30;15.90;;;;;;;3.88;67.25;100234.48;129526;1261;115085;-63
2023/04/22 03:24:02;;;;;;;26.70;16.80;;;;;;;3.85;67.49;100234.57;129341;1264;114896;-63
2023/04/22 03:27:05;;;;;;;28.00;16.20;;;;;;;3.82;67.63;100232.34;129443;1259;114825;-63
2023/04/22 03:30:07;;;;;;;24.60;16.80;;;;;;;3.79;67.60;100230.65;129570;1261;115136;-63
2023/04/22 03:33:10;;;;;;;27.10;17.00;;;;;;;3.76;67.63;100226.28;129468;1259;114787;-65
2023/04/22 03:36:12;;;;;;;29.40;16.30;;;;;;;3.73;67.76;100226.52;129463;1262;114735;-63
2023/04/22 03:39:15;;;;;;;25.10;16.30;;;;;;;3.70;67.85;100224.31;129438;1281;115193;-63
2023/04/22 03:42:17;;;;;;;25.50;15.50;;;;;;;3.68;68.00;100224.33;129558;1258;114812;-63
2023/04/22 03:45:20;;;;;;;26.80;15.40;;;;;;;3.66;68.12;100221.02;129507;1258;114685;-63
2023/04/22 03:48:22;;;;;;;28.10;17.40;;;;;;;3.64;68.18;100222.13;129821;1259;114771;-63
2023/04/22 03:51:28;;;;;;;27.20;16.50;;;;;;;3.63;68.46;100222.86;129251;1266;114865;-64
2023/04/22 03:54:30;;;;;;;29.00;17.30;;;;;;;3.62;68.33;100219.52;129213;1281;128709;-66
2023/04/22 03:57:33;;;;;;;27.70;17.70;;;;;;;3.62;68.47;100227.66;129562;1281;115111;-64
2023/04/22 04:00:35;;;;;;;34.70;19.40;;;;;;;3.63;68.64;100222.15;129626;1258;114761;-63
2023/04/22 04:03:37;;;;;;;35.60;21.10;;;;;;;3.66;69.19;100220.85;129581;1264;114756;-67
2023/04/22 04:06:40;;;;;;;34.20;21.60;;;;;;;3.73;69.38;100222.83;129388;1259;114912;-66
2023/04/22 04:09:42;;;;;;;36.10;21.10;;;;;;;3.78;69.37;100222.00;129797;1261;115522;-67
2023/04/22 04:12:44;;;;;;;38.30;20.70;;;;;;;3.86;69.96;100222.17;129658;1259;115097;-65
2023/04/22 04:15:46;;;;;;;35.40;20.50;;;;;;;3.94;70.16;100219.34;129620;1259;114716;-64
2023/04/22 04:18:49;;;;;;;31.60;21.00;;;;;;;4.03;70.30;100217.20;129712;1261;115198;-67
2023/04/22 04:21:51;;;;;;;32.20;20.70;;;;;;;4.12;70.30;100216.27;129783;1261;114845;-65
2023/04/22 04:24:54;;;;;;;36.80;20.70;;;;;;;4.21;70.43;100219.05;129379;1261;114742;-66
2023/04/22 04:27:57;;;;;;;34.30;21.00;;;;;;;4.30;70.29;100219.34;129758;1259;115334;-67
2023/04/22 04:31:01;;;;;;;33.00;19.50;;;;;;;4.40;70.39;100217.34;129432;1261;115114;-66
2023/04/22 04:34:04;;;;;;;29.00;19.40;;;;;;;4.51;70.28;100216.36;129296;1268;128581;-65
2023/04/22 04:37:07;;;;;;;31.60;19.20;;;;;;;4.62;70.02;100217.83;129381;1281;115086;-65
2023/04/22 04:40:11;;;;;;;30.50;19.80;;;;;;;4.73;69.85;100215.76;129521;1281;114772;-66
2023/04/22 04:43:13;;;;;;;29.30;19.10;;;;;;;4.88;69.90;100212.73;129489;1261;114753;-67
2023/04/22 04:46:15;;;;;;;28.30;17.50;;;;;;;5.02;69.85;100211.09;129434;1263;115235;-66
2023/04/22 04:49:19;;;;;;;28.50;18.30;;;;;;;5.22;69.62;100216.38;129515;1259;114728;-67
2023/04/22 04:52:21;;;;;;;28.60;16.40;;;;;;;5.49;69.64;100213.27;129251;1259;127866;-66
2023/04/22 04:55:23;;;;;;;29.00;17.60;;;;;;;5.90;69.57;100214.52;129507;1258;114777;-66
2023/04/22 04:58:26;;;;;;;24.20;15.60;;;;;;;6.37;69.19;100213.91;129555;1259;115352;-67
2023/04/22 05:01:28;;;;;;;24.50;15.70;;;;;;;6.88;68.67;100215.89;129544;1262;114789;-66
2023/04/22 05:04:31;;;;;;;22.70;14.90;;;;;;;7.38;67.93;100213.70;129511;1261;114727;-66
2023/04/22 05:07:33;;;;;;;27.10;14.60;;;;;;;7.91;67.22;100207.39;129393;1264;114889;-68
2023/04/22 05:10:36;;;;;;;19.50;14.40;;;;;;;8.46;66.94;100204.48;129554;1277;115249;-66
2023/04/22 05:13:38;;;;;;;24.00;15.50;;;;;;;9.06;65.96;100201.68;129269;1280;127857;-65
2023/04/22 05:16:40;;;;;;;25.40;13.60;;;;;;;9.65;65.10;100200.77;129451;1259;115293;-68
2023/04/22 05:19:42;;;;;;;22.70;14.20;;;;;;;10.18;64.56;100202.52;129550;1261;114857;-64
2023/04/22 05:22:45;;;;;;;24.70;13.50;;;;;;;10.61;63.65;100201.30;129442;1262;114758;-66
2023/04/22 05:25:47;;;;;;;20.90;13.30;;;;;;;11.00;63.07;100204.27;129488;1261;114721;-64
2023/04/22 05:28:49;;;;;;;22.40;14.30;;;;;;;11.35;62.45;100207.08;129478;1273;114809;-68
2023/04/22 05:31:51;;;;;;;21.20;12.90;;;;;;;11.54;61.48;100209.63;129465;1275;114751;-67
2023/04/22 05:34:53;;;;;;;26.40;15.10;;;;;;;11.71;61.55;100209.06;129408;1261;128461;-69
2023/04/22 05:37:55;;;;;;;22.90;13.60;;;;;;;11.83;61.12;100210.90;129497;1261;114933;-65
2023/04/22 05:40:57;;;;;;;20.90;13.80;;;;;;;11.83;60.81;100208.01;129488;1281;114723;-65
2023/04/22 05:43:59;;;;;;;21.50;13.50;;;;;;;11.82;60.33;100213.11;129506;1275;115339;-66
2023/04/22 05:47:02;;;;;;;24.80;14.50;;;;;;;11.78;59.25;100215.45;129597;1261;114723;-66
2023/04/22 05:50:05;;;;;;;23.70;14.20;;;;;;;11.88;59.36;100212.05;129516;1259;114797;-65
2023/04/22 05:53:08;;;;;;;32.00;18.20;;;;;;;12.21;59.54;100209.27;129649;1275;114766;-65
2023/04/22 05:56:10;;;;;;;35.90;19.90;;;;;;;12.56;59.01;100203.52;129925;1281;115124;-66
2023/04/22 05:59:13;;;;;;;35.10;19.30;;;;;;;12.86;58.71;100205.27;129341;1259;114695;-68
2023/04/22 06:02:15;;;;;;;33.60;17.90;;;;;;;13.22;58.06;100199.70;129495;1264;114786;-65
2023/04/22 06:05:18;;;;;;;31.90;16.50;;;;;;;13.61;57.38;100201.09;129506;1261;114721;-66
2023/04/22 06:08:20;;;;;;;29.50;17.20;;;;;;;13.93;56.51;100199.58;129481;1281;114763;-65
2023/04/22 06:11:24;;;;;;;28.90;16.30;;;;;;;14.33;56.32;100200.69;129344;1263;116055;-67
2023/04/22 06:14:26;;;;;;;21.90;13.50;;;;;;;14.82;55.65;100203.73;129286;1281;128230;-65
2023/04/22 06:17:28;;;;;;;22.20;14.70;;;;;;;15.34;55.65;100203.70;129456;1260;114725;-66
2023/04/22 06:20:34;;;;;;;17.80;13.00;;;;;;;15.89;54.91;100202.15;129537;1261;115232;-66
2023/04/22 06:23:37;;;;;;;21.80;12.80;;;;;;;16.40;54.22;100201.59;129410;1259;114782;-66
2023/04/22 06:26:39;;;;;;;21.40;14.50;;;;;;;16.90;53.77;100198.15;129498;1261;114783;-66
2023/04/22 06:29:41;;;;;;;18.90;12.70;;;;;;;17.23;52.88;100197.81;129508;1275;114757;-65
2023/04/22 06:32:43;;;;;;;19.80;13.40;;;;;;;17.55;52.44;100196.72;129438;1261;114796;-63
2023/04/22 06:35:45;;;;;;;19.00;13.00;;;;;;;17.86;52.23;100191.48;129376;1262;115226;-67
2023/04/22 06:38:48;;;;;;;24.50;14.00;;;;;;;18.18;51.59;100190.73;129431;1262;114797;-66
2023/04/22 06:41:50;;;;;;;19.90;13.30;;;;;;;18.35;51.06;100191.09;129186;1281;115160;-67
2023/04/22 06:44:52;;;;;;;22.50;13.20;;;;;;;18.52;50.43;100188.17;129468;1261;115146;-65
2023/04/22 06:47:54;;;;;;;15.70;12.40;;;;;;;18.63;50.15;100189.99;129479;1278;114809;-65
2023/04/22 06:50:57;;;;;;;17.70;12.30;;;;;;;18.77;49.92;100189.94;129312;1267;115103;-65
2023/04/22 06:53:59;;;;;;;18.40;13.00;;;;;;;18.96;49.71;100196.11;129424;1281;114744;-67
2023/04/22 06:57:02;;;;;;;20.30;13.00;;;;;;;19.13;49.04;100194.97;129442;1275;115101;-64
2023/04/22 07:00:08;;;;;;;18.30;12.40;;;;;;;19.29;48.56;100192.73;129460;1281;114768;-65
2023/04/22 07:03:10;;;;;;;17.30;11.50;;;;;;;19.56;48.20;100194.16;129265;1264;115248;-65
2023/04/22 07:06:13;;;;;;;19.10;12.50;;;;;;;19.87;48.00;100190.67;129445;1281;114735;-64
2023/04/22 07:09:15;;;;;;;19.90;11.90;;;;;;;20.20;47.26;100189.33;129396;1261;114636;-63
2023/04/22 07:12:18;;;;;;;20.30;12.00;;;;;;;20.39;46.74;100186.83;129586;1278;114781;-64
2023/04/22 07:15:20;;;;;;;19.70;12.90;;;;;;;20.70;46.56;100188.15;129463;1264;115328;-65
2023/04/22 07:18:22;;;;;;;16.50;11.60;;;;;;;21.07;46.12;100187.77;129471;1259;114822;-64
2023/04/22 07:21:25;;;;;;;15.70;10.70;;;;;;;21.34;45.57;100184.52;129466;1261;114724;-66
2023/04/22 07:24:27;;;;;;;19.30;11.50;;;;;;;21.58;44.85;100187.11;129503;1261;114815;-64
2023/04/22 07:27:29;;;;;;;18.50;12.00;;;;;;;21.81;44.54;100186.10;129419;1264;114768;-64
2023/04/22 07:30:31;;;;;;;19.80;11.90;;;;;;;22.09;44.31;100184.42;129398;1262;114761;-64
2023/04/22 07:33:33;;;;;;;17.00;11.50;;;;;;;22.36;43.52;100188.61;129477;1261;114841;-64
2023/04/22 07:36:36;;;;;;;16.10;10.80;;;;;;;22.59;43.05;100189.45;129708;1281;114757;-65
2023/04/22 07:39:39;;;;;;;18.00;11.80;;;;;;;22.93;42.57;100185.95;129524;1281;114750;-65
2023/04/22 07:42:41;;;;;;;18.10;11.50;;;;;;;23.16;42.26;100187.95;129396;1271;114762;-64
2023/04/22 07:45:44;;;;;;;16.30;12.10;;;;;;;23.41;41.70;100186.98;129411;1274;114713;-65
2023/04/22 07:48:46;;;;;;;17.40;11.60;;;;;;;23.63;41.15;100187.44;129577;1262;114731;-64
2023/04/22 07:51:50;;;;;;;13.50;10.70;;;;;;;23.82;40.43;100185.39;129782;1261;115077;-64
2023/04/22 07:54:52;;;;;;;16.70;10.30;;;;;;;24.10;40.53;100187.92;129271;1272;114929;-65
2023/04/22 07:57:54;;;;;;;18.90;12.20;;;;;;;24.42;40.22;100185.00;129395;1264;115477;-65
2023/04/22 08:00:57;;;;;;;16.00;11.30;;;;;;;24.51;39.92;100183.61;129490;1262;114752;-64
2023/04/22 08:03:59;;;;;;;15.10;10.00;;;;;;;24.65;39.25;100176.64;129554;1263;114852;-66
2023/04/22 08:07:02;;;;;;;16.90;10.40;;;;;;;24.74;38.75;100172.70;129321;1275;115701;-66
2023/04/22 08:10:06;;;;;;;14.70;10.50;;;;;;;25.01;38.85;100175.77;129468;1281;114736;-65
2023/04/22 08:13:08;;;;;;;11.80;10.40;;;;;;;25.26;38.33;100172.72;129500;1281;114891;-66
2023/04/22 08:16:10;;;;;;;13.80;10.30;;;;;;;25.29;37.84;100175.66;129409;1281;115311;-65
2023/04/22 08:19:13;;;;;;;17.10;10.30;;;;;;;25.41;37.64;100168.98;129463;1281;114732;-66
2023/04/22 08:22:17;;;;;;;14.30;10.10;;;;;;;25.61;37.26;100170.05;129567;1262;115168;-65
2023/04/22 08:25:19;;;;;;;14.60;10.30;;;;;;;25.75;36.64;100169.93;129483;1281;114712;-66
2023/04/22 08:28:22;;;;;;;13.80;10.90;;;;;;;25.82;36.66;100167.54;129575;1281;114800;-65
2023/04/22 08:31:24;;;;;;;16.60;10.90;;;;;;;25.80;36.20;100167.20;129516;1281;115178;-65
2023/04/22 08:34:27;;;;;;;12.60;9.90;;;;;;;25.86;35.63;100170.35;129500;1281;114741;-64
2023/04/22 08:37:30;;;;;;;13.70;9.60;;;;;;;25.94;35.06;100171.88;129408;1281;120214;-64
2023/04/22 08:40:34;;;;;;;17.60;9.90;;;;;;;25.88;34.68;100168.46;129683;1281;114812;-64
2023/04/22 08:43:36;;;;;;;18.20;10.40;;;;;;;25.69;34.33;100166.73;129694;1260;114796;-64
2023/04/22 08:46:40;;;;;;;15.10;10.80;;;;;;;25.55;34.37;100165.02;129581;1261;114685;-66
2023/04/22 08:49:45;;;;;;;14.90;9.80;;;;;;;25.38;34.50;100167.73;129759;1281;114700;-67
2023/04/22 08:52:47;;;;;;;15.20;9.80;;;;;;;25.13;34.53;100160.52;129715;1262;120115;-64
2023/04/22 08:55:50;;;;;;;13.60;9.70;;;;;;;24.86;34.41;100159.10;129558;1281;114702;-66
2023/04/22 08:58:53;;;;;;;14.90;8.80;;;;;;;24.48;33.59;100160.39;129618;1261;114785;-68
2023/04/22 09:01:58;;;;;;;13.60;9.10;;;;;;;24.09;34.42;100163.98;129494;1264;114981;-68
2023/04/22 09:05:02;;;;;;;13.90;8.90;;;;;;;23.86;34.27;100164.34;129780;1281;114729;-69
2023/04/22 09:08:06;;;;;;;11.70;8.40;;;;;;;23.71;34.56;100163.63;129630;1281;114795;-68
2023/04/22 09:11:09;;;;;;;12.40;7.40;;;;;;;23.58;33.66;100167.32;129487;1281;115425;-69
2023/04/22 09:14:11;;;;;;;12.20;7.70;;;;;;;23.54;34.26;100167.67;129828;1281;114726;-69
2023/04/22 09:17:18;;;;;;;15.90;7.20;;;;;;;23.48;34.18;100163.69;129399;1281;114813;-66
2023/04/22 09:20:30;;;;;;;9.20;5.60;;;;;;;23.47;34.48;100165.94;129349;1266;114780;-66
2023/04/22 09:23:33;;;;;;;11.60;6.30;;;;;;;23.46;34.03;100160.74;129675;1281;129035;-65
2023/04/22 09:26:40;;;;;;;10.00;7.50;;;;;;;23.47;33.90;100160.46;129600;1278;114735;-71
2023/04/22 09:29:49;;;;;;;9.40;5.40;;;;;;;23.42;33.65;100161.08;129475;1264;114822;-68
2023/04/22 09:32:57;;;;;;;10.30;7.10;;;;;;;23.36;32.87;100162.19;129502;1279;114720;-67
2023/04/22 09:36:08;;;;;;;11.90;7.00;;;;;;;23.33;33.48;100157.96;129404;1267;114762;-69
2023/04/22 09:39:10;;;;;;;9.60;7.00;;;;;;;23.18;33.44;100158.05;129169;1281;127906;-66
2023/04/22 09:42:14;;;;;;;8.30;6.00;;;;;;;22.97;32.66;100154.42;129374;1272;115255;-69
2023/04/22 09:45:37;;;;;;;8.00;6.50;;;;;;;22.71;32.77;100148.37;129535;1262;114792;-69
2023/04/22 09:48:42;;;;;;;8.30;5.40;;;;;;;22.35;32.72;100145.10;129278;1265;114722;-68
2023/04/22 09:51:45;;;;;;;10.40;5.60;;;;;;;22.17;33.09;100143.96;129584;1262;114902;-68
2023/04/22 09:54:50;;;;;;;10.60;6.70;;;;;;;22.04;33.03;100142.60;129413;1264;114820;-67
2023/04/22 09:57:54;;;;;;;9.10;6.20;;;;;;;21.97;33.90;100141.23;129471;1281;115200;-69
2023/04/22 10:01:02;;;;;;;8.60;6.20;;;;;;;21.94;33.67;100139.02;129511;1265;114977;-64
2023/04/22 10:04:06;;;;;;;9.50;5.80;;;;;;;21.84;33.28;100140.35;129578;1267;115111;-70
2023/04/22 10:07:08;;;;;;;8.50;5.50;;;;;;;21.66;32.76;100135.79;129589;1281;115380;-69
2023/04/22 10:10:11;;;;;;;11.30;5.80;;;;;;;21.53;32.73;100134.98;129549;1281;114795;-67
2023/04/22 10:13:13;;;;;;;7.40;5.70;;;;;;;21.49;33.34;100135.59;129768;1281;114805;-69
2023/04/22 10:16:18;;;;;;;8.50;5.00;;;;;;;21.50;33.51;100134.82;129744;1275;114849;-70
2023/04/22 10:19:22;;;;;;;9.70;4.90;;;;;;;21.41;32.11;100134.70;129356;1264;114851;-69
2023/04/22 10:22:26;;;;;;;6.30;5.20;;;;;;;21.30;32.16;100135.30;129566;1264;114822;-66
2023/04/22 10:25:28;;;;;;;6.60;4.40;;;;;;;21.23;32.29;100131.23;129299;1266;115265;-68
2023/04/22 10:28:31;;;;;;;8.50;5.20;;;;;;;21.14;31.89;100123.70;129398;1262;114819;-67
2023/04/22 10:31:33;;;;;;;6.20;4.60;;;;;;;21.06;31.72;100122.46;129374;1271;114765;-68
2023/04/22 10:34:37;;;;;;;7.90;4.70;;;;;;;20.98;31.66;100121.64;129508;1263;115330;-67
2023/04/22 10:37:41;;;;;;;9.70;5.10;;;;;;;20.90;31.51;100119.63;129546;1281;114770;-68
2023/04/22 10:40:59;;;;;;;8.10;4.40;;;;;;;20.85;31.38;100111.64;129816;1281;114780;-69
2023/04/22 10:44:07;;;;;;;6.40;4.40;;;;;;;20.78;31.35;100108.64;129665;1275;114761;-68
2023/04/22 10:47:10;;;;;;;7.30;4.60;;;;;;;20.70;31.84;100106.69;129773;1281;128842;-68
2023/04/22 10:50:25;;;;;;;6.30;4.60;;;;;;;20.70;32.23;100105.38;129716;1262;115009;-70
2023/04/22 10:53:33;;;;;;;;;;;;;;;20.71;31.86;100105.34;129455;1262;114823;-69
2023/04/22 10:56:59;;;;;;;8.00;4.80;;;;;;;20.65;32.33;100103.64;129470;1281;114834;-70
2023/04/22 11:00:02;;;;;;;;;;;;;;;20.71;32.64;100095.29;129182;1281;114921;-70
2023/04/22 11:03:04;;;;;;;6.10;4.20;;;;;;;20.70;32.08;100088.33;129403;1264;128656;-69
2023/04/22 11:06:21;;;;;;;7.20;5.40;;;;;;;20.69;32.55;100087.93;129539;1263;114711;-70
2023/04/22 11:09:23;;;;;;;6.90;5.10;;;;;;;20.71;32.72;100089.84;129957;1270;114711;-68
2023/04/22 11:12:34;;;;;;;6.40;4.80;;;;;;;20.73;32.79;100084.98;129596;1263;115285;-69
2023/04/22 11:15:38;;;;;;;9.90;5.40;;;;;;;20.75;32.40;100083.92;129516;1264;115039;-68
2023/04/22 11:18:40;;;;;;;7.00;5.50;;;;;;;20.70;32.10;100082.36;129304;1281;127773;-69
2023/04/22 11:21:42;;;;;;;7.00;5.20;;;;;;;20.59;31.97;100074.45;129514;1264;115200;-69
2023/04/22 11:24:58;;;;;;;8.90;5.60;;;;;;;20.52;32.20;100068.30;129479;1272;114681;-69
2023/04/22 11:28:00;;;;;;;12.00;7.00;;;;;;;20.48;32.04;100063.69;129751;1273;116253;-69
2023/04/22 11:31:11;;;;;;;16.00;9.10;;;;;;;20.42;32.00;100068.64;129442;1265;114743;-69
2023/04/22 11:34:13;;;;;;;23.00;12.80;;;;;;;20.36;31.58;100066.10;129333;1282;128435;-67
2023/04/22 11:37:18;;;;;;;25.40;14.80;;;;;;;20.27;31.78;100062.06;129595;1282;115088;-67
2023/04/22 11:40:24;;;;;;;13.20;8.80;;;;;;;20.27;32.04;100057.02;129578;1282;114991;-67
2023/04/22 11:43:26;;;;;;;304.50;216.60;;;;;;;20.28;32.16;100058.90;129445;1267;114924;-69
2023/04/22 11:46:37;;;;;;;48.70;31.90;;;;;;;20.27;31.66;100056.79;129478;1282;114725;-70
2023/04/22 11:49:39;;;;;;;111.40;57.30;;;;;;;20.22;31.80;100060.20;129294;1264;128177;-70
2023/04/22 11:52:44;;;;;;;14.00;8.20;;;;;;;20.18;31.68;100054.94;129397;1264;114792;-69
2023/04/22 11:55:52;;;;;;;18.30;10.10;;;;;;;20.11;31.82;100049.41;129578;1263;114818;-66
2023/04/22 11:58:54;;;;;;;13.10;10.70;;;;;;;20.10;32.42;100045.97;129310;1267;114852;-67
2023/04/22 12:01:56;;;;;;;26.40;21.40;;;;;;;20.07;32.08;100044.91;129506;1267;115201;-65
2023/04/22 12:05:02;;;;;;;12.20;8.30;;;;;;;20.01;31.88;100044.57;129600;1282;114717;-67
2023/04/22 12:08:11;;;;;;;9.20;6.80;;;;;;;19.98;32.46;100043.08;129469;1265;115215;-67
2023/04/22 12:11:14;;;;;;;14.90;10.40;;;;;;;20.00;33.09;100044.17;129290;1264;114846;-64
2023/04/22 12:14:17;;;;;;;13.90;10.90;;;;;;;20.04;33.04;100040.27;129534;1282;114790;-66
2023/04/22 12:17:23;;;;;;;10.00;5.00;;;;;;;20.05;32.85;100041.30;129472;1271;114815;-67
2023/04/22 12:20:32;;;;;;;6.30;4.60;;;;;;;20.02;32.49;100037.43;129452;1277;126904;-64
2023/04/22 12:23:44;;;;;;;8.00;5.00;;;;;;;19.98;32.93;100038.50;129453;1282;115328;-65
2023/04/22 12:26:46;;;;;;;9.40;4.80;;;;;;;19.99;32.87;100039.70;129291;1261;114834;-66
2023/04/22 12:29:54;;;;;;;8.80;5.10;;;;;;;19.97;32.78;100034.05;129471;1265;115120;-66
2023/04/22 12:32:56;;;;;;;17.40;11.60;;;;;;;19.96;32.95;100029.64;129246;1267;114809;-67
2023/04/22 12:35:59;;;;;;;28.70;16.60;;;;;;;19.97;33.44;100023.87;129424;1281;114886;-65
2023/04/22 12:39:03;;;;;;;33.20;21.70;;;;;;;19.98;32.84;100020.89;129449;1281;114814;-66
2023/04/22 12:42:06;;;;;;;10.10;7.60;;;;;;;19.97;32.81;100024.67;129537;1260;115177;-68
2023/04/22 12:45:09;;;;;;;104.90;67.90;;;;;;;19.91;32.23;100019.58;129567;1263;115315;-66
2023/04/22 12:48:11;;;;;;;100.60;62.70;;;;;;;19.86;32.44;100013.32;129518;1281;114705;-67
2023/04/22 12:51:14;;;;;;;104.50;68.00;;;;;;;19.84;33.07;100004.56;129559;1271;114784;-68
2023/04/22 12:54:16;;;;;;;42.90;29.60;;;;;;;19.88;33.43;100005.01;129515;1281;128834;-66
2023/04/22 12:57:18;;;;;;;17.30;11.50;;;;;;;19.90;33.05;100002.27;129679;1281;114773;-64
2023/04/22 13:00:21;;;;;;;131.90;85.10;;;;;;;19.86;32.61;99993.89;129563;1260;115125;-64
2023/04/22 13:03:24;;;;;;;98.10;69.00;;;;;;;19.82;32.62;99992.13;129515;1263;114745;-65
2023/04/22 13:06:27;;;;;;;16.50;11.20;;;;;;;19.78;32.63;99992.68;129734;1281;114774;-65
2023/04/22 13:09:29;;;;;;;84.00;59.20;;;;;;;19.71;32.43;99992.22;129404;1281;114811;-67
2023/04/22 13:12:32;;;;;;;158.80;122.30;;;;;;;19.66;32.53;99984.33;129396;1281;114740;-66
2023/04/22 13:15:35;;;;;;;26.70;19.10;;;;;;;19.63;32.98;99977.17;129455;1263;114724;-65
2023/04/22 13:18:37;;;;;;;20.30;15.20;;;;;;;19.64;33.05;99973.34;129667;1264;115156;-65
2023/04/22 13:21:40;;;;;;;15.50;10.80;;;;;;;19.64;32.45;99970.91;129279;1264;381754;-66
2023/04/22 13:24:42;;;;;;;10.20;6.00;;;;;;;19.61;32.32;99966.52;129534;1273;114740;-65
2023/04/22 13:27:45;;;;;;;9.50;4.40;;;;;;;19.59;31.87;99971.23;129476;1280;114737;-66
2023/04/22 13:30:47;;;;;;;8.70;6.20;;;;;;;19.54;31.36;99964.80;129532;1271;115402;-67
2023/04/22 13:33:49;;;;;;;11.00;7.40;;;;;;;19.52;31.47;99956.79;129506;1277;127448;-65
2023/04/22 13:36:52;;;;;;;13.50;8.80;;;;;;;19.51;31.17;99953.88;129561;1270;115154;-65
2023/04/22 13:39:54;;;;;;;23.70;14.30;;;;;;;19.50;31.66;99951.02;129468;1262;114734;-66
2023/04/22 13:42:57;;;;;;;14.30;8.90;;;;;;;19.51;32.18;99953.85;129450;1263;115460;-65
2023/04/22 13:45:59;;;;;;;10.40;6.80;;;;;;;19.53;32.16;99954.79;129473;1265;114946;-65